Pagina principale
METAR-TAF:

METAR-TAF

Aeroporti :

Terceira, Azzorre, Portogallo

latitudine: 38-46N, longitudine: 027-06W, altezza: 52 m

Osservazione

Il bollettino è stato emesso 23 minuti fa, alle 06:00 UTC
Temperature 17°C
Umidità 77%
Pressione 1026 hPa
Visibilità 10 km o più
Nubi sparse ad un'altezza di 2000 ft
Nubi sparse ad un'altezza di 4000 ft

METAR: LPLA 270600Z /////KT 9999 SCT020 SCT040 17/13 Q1026

Ora: 06:23 (06:23 UTC)

Previsione

Il bollettino è stato emesso 1 ora e 14 minuti fa, alle 05:09 UTC
Previsione valida dal 27 alle 06 UTC al 28 alle 06 UTC
Vento 12 kt da nord
Visibilità 10 km o più
Poco nuvoloso ad un'altezza di 2000 ft
Nuvoloso ad un'altezza di 4000 ft

TAF: LPLA 270509Z 2706/2806 35012KT 9999 FEW020 BKN040

Osservazioni e previsioni meteorologiche di più di 4000 aeroporti (messaggi METAR e TAF).

Le stazioni disponibili sono rappresentate dai dischi gialli e rossi sulla carta.

Puntare il mouse per vedere il nome della stazione.

Clicca sopra per visualizzare le osservazioni e previsioni meteorologiche.

Per cambiare la mappa : fare clic sui pulsanti verdi con una croce nera per ingrandire, il pulsante verde con un trattino per diminuire, o sulla freccia verde per le mappe adiacenti.


METAR-TAF: